Time;durP1;ratioP1;P1;durP2;ratioP2;P2;SDS_P1;SDS_P2;PMS_P1;PMS_P2;Temp;Humidity;BMP_temperature;BMP_pressure;BME280_temperature;BME280_humidity;BME280_pressure;Samples;Min_cycle;Max_cycle;Signal;HPM_P1;HPM_P2
2023/10/19 00:01:59;;;;;;;21.67;16.02;;;;;;;12.53;nan;97860.19;4995883;28;20226;-78
2023/10/19 00:04:25;;;;;;;27.52;18.38;;;;;;;12.54;nan;97842.56;4996511;28;21012;-78
2023/10/19 00:06:53;;;;;;;28.75;21.77;;;;;;;12.57;nan;97855.44;4995726;28;20642;-77
2023/10/19 00:09:20;;;;;;;31.77;21.40;;;;;;;12.57;nan;97840.47;4997646;28;20256;-78
2023/10/19 00:11:46;;;;;;;30.33;18.90;;;;;;;12.56;nan;97841.44;4998411;28;20199;-78
2023/10/19 00:14:18;;;;;;;22.73;17.02;;;;;;;12.57;nan;97837.81;4998070;28;20850;-78
2023/10/19 00:16:53;;;;;;;28.23;18.65;;;;;;;12.60;nan;97839.31;4992652;28;20187;-78
2023/10/19 00:19:19;;;;;;;28.52;20.80;;;;;;;12.60;nan;97842.78;4997690;28;20229;-78
2023/10/19 00:21:50;;;;;;;25.35;18.05;;;;;;;12.61;nan;97839.19;4995205;28;20207;-78
2023/10/19 00:24:17;;;;;;;26.42;20.13;;;;;;;12.61;nan;97844.44;4988394;28;20553;-78
2023/10/19 00:26:43;;;;;;;23.40;18.80;;;;;;;12.61;nan;97857.63;4993251;28;20210;-78
2023/10/19 00:29:30;;;;;;;24.65;18.27;;;;;;;12.64;nan;97848.59;4998478;28;20704;-78
2023/10/19 00:32:00;;;;;;;23.13;17.15;;;;;;;12.67;nan;97852.72;4995885;28;20191;-78
2023/10/19 00:34:28;;;;;;;24.98;16.73;;;;;;;12.67;nan;97855.34;4995021;28;20216;-78
2023/10/19 00:36:55;;;;;;;26.13;22.17;;;;;;;12.67;nan;97864.06;4996617;28;20751;-78
2023/10/19 00:39:22;;;;;;;20.98;14.77;;;;;;;12.68;nan;97876.25;4995216;28;20450;-78
2023/10/19 00:41:48;;;;;;;22.08;16.42;;;;;;;12.68;nan;97867.53;4999772;28;20202;-78
2023/10/19 00:44:35;;;;;;;24.47;17.73;;;;;;;12.68;nan;97857.81;4995730;28;20207;-78
2023/10/19 00:47:07;;;;;;;20.80;16.25;;;;;;;12.68;nan;97862.25;4996686;28;20477;-78
2023/10/19 00:49:33;;;;;;;21.90;15.30;;;;;;;12.70;nan;97855.88;4998543;28;20199;-78
2023/10/19 00:52:10;;;;;;;20.77;17.37;;;;;;;12.70;nan;97860.31;4999147;28;20205;-78
2023/10/19 00:54:58;;;;;;;20.00;15.70;;;;;;;12.70;nan;97853.22;4988638;28;20481;-78
2023/10/19 00:57:35;;;;;;;19.92;16.48;;;;;;;12.68;nan;97844.66;4996424;28;20202;-78
2023/10/19 01:00:21;;;;;;;22.33;17.52;;;;;;;12.68;nan;97846.47;4995915;28;20191;-78
2023/10/19 01:02:47;;;;;;;19.08;15.77;;;;;;;12.68;nan;97838.56;4990239;28;20766;-78
2023/10/19 01:05:13;;;;;;;26.92;20.58;;;;;;;12.69;nan;97846.31;4992480;28;20462;-78
2023/10/19 01:07:40;;;;;;;23.92;17.92;;;;;;;12.71;nan;97840.88;4995010;28;20289;-78
2023/10/19 01:10:08;;;;;;;17.50;15.20;;;;;;;12.71;nan;97843.50;4999293;28;20355;-78
2023/10/19 01:13:16;;;;;;;22.90;16.17;;;;;;;12.69;nan;97829.66;4989727;28;20550;-78
2023/10/19 01:15:42;;;;;;;18.15;15.07;;;;;;;12.68;nan;97828.84;5002805;28;20227;-79
2023/10/19 01:18:10;;;;;;;18.40;15.50;;;;;;;12.68;nan;97834.09;4979684;28;20217;-78
2023/10/19 01:20:51;;;;;;;17.70;15.25;;;;;;;12.70;nan;97823.44;4986493;28;20200;-79
2023/10/19 01:23:26;;;;;;;15.20;13.23;;;;;;;12.67;nan;97821.94;4984740;28;20242;-79
2023/10/19 01:28:28;;;;;;;18.50;14.27;;;;;;;12.66;nan;97819.44;4987771;28;20207;-79
2023/10/19 01:30:54;;;;;;;15.85;14.25;;;;;;;12.67;nan;97810.56;4984346;28;20786;-78
2023/10/19 01:33:22;;;;;;;16.80;14.33;;;;;;;12.68;nan;97793.78;4984331;28;20210;-79
2023/10/19 01:38:33;;;;;;;15.23;13.07;;;;;;;12.68;nan;97797.22;4985428;28;20203;-79
2023/10/19 01:40:59;;;;;;;15.90;13.40;;;;;;;12.66;nan;97806.25;4982687;28;20214;-78
2023/10/19 01:43:30;;;;;;;21.00;14.75;;;;;;;12.65;nan;97800.19;4981829;28;20468;-78
2023/10/19 01:45:55;;;;;;;17.08;13.57;;;;;;;12.65;nan;97799.34;4988714;28;20211;-78
2023/10/19 01:48:28;;;;;;;17.83;13.10;;;;;;;12.65;nan;97791.47;4977946;28;20250;-78
2023/10/19 01:50:53;;;;;;;17.77;12.02;;;;;;;12.64;nan;97795.91;4981141;28;20462;-79
2023/10/19 01:53:25;;;;;;;17.20;13.13;;;;;;;12.63;nan;97781.88;4986229;28;20256;-78
2023/10/19 01:55:57;;;;;;;17.48;12.75;;;;;;;12.63;nan;97792.41;4985834;28;20214;-78
2023/10/19 01:58:27;;;;;;;15.65;11.25;;;;;;;12.62;nan;97788.16;4976062;28;20215;-78
2023/10/19 02:00:55;;;;;;;19.00;13.75;;;;;;;12.61;nan;97781.22;4985114;28;20237;-78
2023/10/19 02:03:23;;;;;;;15.82;12.35;;;;;;;12.62;nan;97780.25;4981837;28;20203;-78
2023/10/19 02:05:50;;;;;;;14.60;13.20;;;;;;;12.65;nan;97778.28;4984936;28;20203;-78
2023/10/19 02:08:17;;;;;;;18.83;13.20;;;;;;;12.66;nan;97774.66;4983337;28;20217;-79
2023/10/19 02:10:47;;;;;;;24.17;15.98;;;;;;;12.67;nan;97769.25;4981184;28;20204;-79
2023/10/19 02:13:15;;;;;;;21.70;14.55;;;;;;;12.68;nan;97768.25;4982054;28;20302;-78
2023/10/19 02:15:46;;;;;;;19.85;14.93;;;;;;;12.68;nan;97768.25;4977529;23;20233;-77
2023/10/19 02:18:19;;;;;;;17.23;13.75;;;;;;;12.69;nan;97769.06;4930008;28;20778;-75
2023/10/19 02:20:48;;;;;;;16.57;12.40;;;;;;;12.68;nan;97756.91;4944240;28;20630;-74
2023/10/19 02:23:14;;;;;;;12.80;10.88;;;;;;;12.68;nan;97754.25;4926739;28;20197;-75
2023/10/19 02:25:40;;;;;;;14.43;12.93;;;;;;;12.67;nan;97755.25;4942685;28;20270;-74
2023/10/19 02:28:09;;;;;;;16.50;13.37;;;;;;;12.67;nan;97758.72;4939427;28;20200;-74
2023/10/19 02:30:35;;;;;;;16.95;11.95;;;;;;;12.66;nan;97767.56;4942097;28;20204;-75
2023/10/19 02:33:01;;;;;;;18.17;14.77;;;;;;;12.68;nan;97764.81;4945704;28;20606;-75
2023/10/19 02:35:28;;;;;;;14.95;11.23;;;;;;;12.67;nan;97760.53;4933505;28;20537;-75
2023/10/19 02:37:54;;;;;;;19.98;11.10;;;;;;;12.65;nan;97752.78;4924567;28;20335;-74
2023/10/19 02:40:19;;;;;;;17.38;12.55;;;;;;;12.67;nan;97752.63;4942116;28;20208;-74
2023/10/19 02:42:47;;;;;;;15.33;11.63;;;;;;;12.70;nan;97749.66;4942163;28;20280;-74
2023/10/19 02:45:15;;;;;;;15.82;12.65;;;;;;;12.71;nan;97751.31;4944010;28;20205;-75
2023/10/19 02:47:43;;;;;;;15.43;11.50;;;;;;;12.75;nan;97760.56;4943130;28;20255;-75
2023/10/19 02:50:11;;;;;;;12.85;10.20;;;;;;;12.78;nan;97745.25;4941644;28;20813;-75
2023/10/19 02:52:36;;;;;;;16.30;11.38;;;;;;;12.83;nan;97740.34;4942953;28;20217;-75
2023/10/19 02:55:04;;;;;;;15.95;10.77;;;;;;;12.88;nan;97746.94;4943692;28;20302;-75
2023/10/19 02:57:31;;;;;;;12.25;10.95;;;;;;;12.91;nan;97736.09;4940584;28;20198;-75
2023/10/19 02:59:58;;;;;;;16.33;10.65;;;;;;;12.96;nan;97732.00;4939301;28;20197;-75
2023/10/19 03:02:25;;;;;;;15.20;11.05;;;;;;;13.01;nan;97732.34;4943760;28;20201;-75
2023/10/19 03:04:53;;;;;;;15.00;9.57;;;;;;;13.05;nan;97720.50;4932248;28;20200;-75
2023/10/19 03:07:18;;;;;;;13.82;11.77;;;;;;;13.13;nan;97717.06;4932305;28;20466;-75
2023/10/19 03:09:53;;;;;;;24.93;11.20;;;;;;;13.18;nan;97714.78;4950448;28;20750;-75
2023/10/19 03:12:19;;;;;;;11.98;8.95;;;;;;;13.22;nan;97716.09;4929837;28;20197;-75
2023/10/19 03:14:47;;;;;;;10.82;8.77;;;;;;;13.26;nan;97716.66;4951862;28;20217;-75
2023/10/19 03:17:13;;;;;;;9.98;9.07;;;;;;;13.29;nan;97711.06;4951123;28;20216;-75
2023/10/19 03:19:38;;;;;;;11.80;9.30;;;;;;;13.32;nan;97708.09;4970377;28;20207;-74
2023/10/19 03:22:06;;;;;;;14.47;10.43;;;;;;;13.39;nan;97711.72;4965380;28;20211;-75
2023/10/19 03:29:48;;;;;;;13.18;11.77;;;;;;;13.49;nan;97693.94;4955244;28;20188;-75
2023/10/19 03:32:17;;;;;;;10.10;8.25;;;;;;;13.51;nan;97696.44;4967609;28;20691;-75
2023/10/19 03:34:47;;;;;;;11.70;8.95;;;;;;;13.53;nan;97688.34;4966455;28;20720;-75
2023/10/19 03:37:14;;;;;;;13.43;10.85;;;;;;;13.57;nan;97685.22;4966223;28;20455;-75
2023/10/19 03:39:41;;;;;;;12.18;9.00;;;;;;;13.61;nan;97688.34;4958048;28;20293;-75
2023/10/19 03:42:07;;;;;;;10.10;8.85;;;;;;;13.63;nan;97686.38;4943178;28;20728;-75
2023/10/19 03:47:19;;;;;;;14.18;8.05;;;;;;;13.70;nan;97668.91;4964138;28;20196;-75
2023/10/19 03:49:46;;;;;;;9.13;7.75;;;;;;;13.75;nan;97663.97;4943235;28;20196;-75
2023/10/19 03:54:39;;;;;;;11.18;7.60;;;;;;;13.86;nan;97665.44;4947470;28;20567;-75
2023/10/19 03:57:25;;;;;;;11.98;7.13;;;;;;;13.89;nan;97660.66;4947104;28;20243;-75
2023/10/19 03:59:56;;;;;;;8.75;6.55;;;;;;;13.93;nan;97661.13;4947719;28;20306;-75
2023/10/19 04:02:28;;;;;;;12.13;7.72;;;;;;;13.95;nan;97656.50;4947909;28;20650;-75
2023/10/19 04:04:55;;;;;;;7.25;6.38;;;;;;;13.99;nan;97659.63;4969203;28;20391;-75
2023/10/19 04:07:21;;;;;;;10.70;8.45;;;;;;;14.02;nan;97649.59;4967364;28;20457;-75
2023/10/19 04:12:38;;;;;;;8.40;6.10;;;;;;;14.05;nan;97641.31;4966211;28;20219;-75
2023/10/19 04:15:18;;;;;;;17.15;6.60;;;;;;;14.05;nan;97646.59;4966482;28;20243;-75
2023/10/19 04:17:46;;;;;;;7.28;5.95;;;;;;;14.05;nan;97640.50;4965973;28;20711;-75
2023/10/19 04:22:44;;;;;;;7.50;6.65;;;;;;;14.03;nan;97647.75;4965173;28;20585;-75
2023/10/19 04:25:12;;;;;;;8.32;6.57;;;;;;;13.99;nan;97654.34;4966740;28;20212;-76
2023/10/19 04:27:42;;;;;;;8.60;7.03;;;;;;;13.98;nan;97642.16;4966490;28;20207;-75
2023/10/19 04:30:15;;;;;;;10.98;7.53;;;;;;;13.97;nan;97635.25;4965439;28;20654;-75
2023/10/19 04:32:41;;;;;;;7.63;6.82;;;;;;;13.95;nan;97625.66;4968803;28;20212;-76
2023/10/19 04:35:09;;;;;;;12.13;7.78;;;;;;;13.94;nan;97634.59;4967226;28;20223;-75
2023/10/19 04:37:35;;;;;;;11.85;9.60;;;;;;;13.97;nan;97629.97;4970554;28;20531;-75
2023/10/19 04:40:00;;;;;;;9.80;8.07;;;;;;;13.95;nan;97628.28;4970492;28;20565;-75
2023/10/19 04:42:27;;;;;;;12.37;8.23;;;;;;;13.93;nan;97618.91;4970451;28;20208;-76
2023/10/19 04:44:54;;;;;;;16.02;9.80;;;;;;;13.91;nan;97618.25;4968709;28;20815;-75
2023/10/19 04:47:19;;;;;;;12.23;8.55;;;;;;;13.88;nan;97619.41;4968531;28;20370;-75
2023/10/19 04:49:45;;;;;;;10.70;7.17;;;;;;;13.86;nan;97618.75;4968567;28;20207;-75
2023/10/19 04:52:10;;;;;;;8.50;7.40;;;;;;;13.85;nan;97611.84;4968495;28;20199;-76
2023/10/19 04:54:37;;;;;;;11.23;7.80;;;;;;;13.84;nan;97618.09;4970358;28;20217;-75
2023/10/19 04:57:03;;;;;;;10.60;8.65;;;;;;;13.84;nan;97606.72;4969495;28;20255;-75
2023/10/19 04:59:32;;;;;;;10.87;8.43;;;;;;;13.83;nan;97603.25;4969073;28;20200;-75
2023/10/19 05:02:00;;;;;;;8.98;6.82;;;;;;;13.81;nan;97607.06;4968349;28;20202;-76
2023/10/19 05:04:27;;;;;;;18.50;10.70;;;;;;;13.80;nan;97606.25;4967355;28;20834;-75
2023/10/19 05:06:52;;;;;;;15.05;11.90;;;;;;;13.79;nan;97601.13;4966941;28;20785;-75
2023/10/19 05:09:18;;;;;;;13.30;9.90;;;;;;;13.79;nan;97595.84;4967742;28;20210;-76
2023/10/19 05:11:45;;;;;;;8.17;7.37;;;;;;;13.78;nan;97596.84;4966752;28;20199;-76
2023/10/19 05:14:13;;;;;;;10.20;8.43;;;;;;;13.78;nan;97589.75;4966001;28;20529;-76
2023/10/19 05:16:42;;;;;;;8.40;7.40;;;;;;;13.78;nan;97583.66;4967921;28;20227;-76
2023/10/19 05:19:07;;;;;;;13.23;8.88;;;;;;;13.78;nan;97583.66;4964224;28;20570;-75
2023/10/19 05:21:33;;;;;;;7.63;6.47;;;;;;;13.79;nan;97574.72;4965380;28;20712;-76
2023/10/19 05:24:02;;;;;;;7.72;6.93;;;;;;;13.79;nan;97578.19;4965324;28;20208;-76
2023/10/19 05:26:27;;;;;;;12.25;7.10;;;;;;;13.79;nan;97578.19;4967350;28;20531;-76
2023/10/19 05:28:54;;;;;;;12.07;8.00;;;;;;;13.81;nan;97575.38;4966489;28;20196;-76
2023/10/19 05:31:20;;;;;;;9.35;6.43;;;;;;;13.81;nan;97565.66;4966299;28;20206;-75
2023/10/19 05:33:48;;;;;;;7.53;5.73;;;;;;;13.81;nan;97564.84;4964322;28;20212;-76
2023/10/19 05:36:14;;;;;;;10.40;7.45;;;;;;;13.80;nan;97565.81;4965874;28;20459;-76
2023/10/19 05:38:40;;;;;;;9.57;6.20;;;;;;;13.79;nan;97570.28;4966068;28;20206;-76
2023/10/19 05:41:05;;;;;;;11.97;7.90;;;;;;;13.79;nan;97562.34;4965598;28;20200;-76
2023/10/19 05:43:31;;;;;;;8.20;6.43;;;;;;;13.80;nan;97566.66;4963765;28;20295;-76
2023/10/19 05:45:56;;;;;;;8.60;6.80;;;;;;;13.80;nan;97566.66;4963351;28;20266;-76
2023/10/19 05:48:23;;;;;;;7.97;5.67;;;;;;;13.82;nan;97563.84;4966097;28;20207;-76
2023/10/19 05:50:49;;;;;;;10.05;6.53;;;;;;;13.81;nan;97568.28;4963930;28;20552;-76
2023/10/19 05:53:18;;;;;;;8.20;5.37;;;;;;;13.82;nan;97572.56;4963346;28;20289;-76
2023/10/19 05:55:44;;;;;;;13.27;5.80;;;;;;;13.81;nan;97573.56;4963571;28;20188;-76
2023/10/19 05:58:10;;;;;;;8.23;7.28;;;;;;;13.80;nan;97571.94;4964378;28;20334;-76
2023/10/19 06:00:35;;;;;;;9.10;5.87;;;;;;;13.80;nan;97564.03;4965004;28;20200;-76
2023/10/19 06:03:01;;;;;;;8.10;6.50;;;;;;;13.80;nan;97571.94;4947089;28;20495;-76
2023/10/19 06:05:26;;;;;;;7.40;5.80;;;;;;;13.80;nan;97577.22;4963505;28;20204;-76
2023/10/19 06:07:52;;;;;;;9.67;5.53;;;;;;;13.80;nan;97571.94;4963414;28;20212;-75
2023/10/19 06:10:20;;;;;;;7.70;6.17;;;;;;;13.79;nan;97569.44;4963500;28;20291;-75
2023/10/19 06:12:49;;;;;;;11.55;7.70;;;;;;;13.78;nan;97570.44;4964820;28;20616;-76
2023/10/19 06:15:16;;;;;;;6.93;5.88;;;;;;;13.78;nan;97573.91;4962949;28;20224;-76
2023/10/19 06:17:43;;;;;;;11.40;6.07;;;;;;;13.78;nan;97566.00;4965547;28;20251;-76
2023/10/19 06:20:19;;;;;;;7.80;6.28;;;;;;;13.79;nan;97575.53;4965094;28;20559;-76
2023/10/19 06:22:50;;;;;;;9.80;7.43;;;;;;;13.78;nan;97562.53;4964168;28;21132;-76
2023/10/19 06:25:23;;;;;;;7.95;6.75;;;;;;;13.79;nan;97564.16;4965254;28;20223;-76
2023/10/19 06:27:49;;;;;;;7.55;6.75;;;;;;;13.80;nan;97564.03;4971243;28;20196;-75
2023/10/19 06:30:18;;;;;;;6.70;6.07;;;;;;;13.83;nan;97568.97;4954684;28;20207;-76
2023/10/19 06:32:50;;;;;;;10.05;7.60;;;;;;;13.85;nan;97566.13;4973318;28;20984;-76
2023/10/19 06:35:16;;;;;;;7.07;5.65;;;;;;;13.86;nan;97555.41;4974178;28;20310;-76
2023/10/19 06:37:43;;;;;;;7.90;6.70;;;;;;;13.87;nan;97548.31;4977119;28;20200;-76
2023/10/19 06:40:11;;;;;;;7.20;6.30;;;;;;;13.89;nan;97548.97;4974764;28;20197;-76
2023/10/19 06:42:37;;;;;;;9.20;6.35;;;;;;;13.90;nan;97550.63;4975079;28;20578;-76
2023/10/19 06:45:04;;;;;;;9.55;7.35;;;;;;;13.91;nan;97552.28;4974908;28;20195;-75
2023/10/19 06:47:29;;;;;;;10.68;6.95;;;;;;;13.93;nan;97566.13;4958402;28;20200;-76
2023/10/19 06:49:55;;;;;;;6.10;5.50;;;;;;;13.94;nan;97560.69;4975245;28;20200;-76
2023/10/19 06:52:21;;;;;;;7.15;6.45;;;;;;;13.98;nan;97562.97;4974311;28;20200;-76
2023/10/19 06:54:47;;;;;;;12.10;7.23;;;;;;;14.03;nan;97564.13;4976009;28;20219;-76
2023/10/19 06:57:12;;;;;;;12.00;8.03;;;;;;;14.08;nan;97556.50;4975287;28;20821;-76
2023/10/19 06:59:38;;;;;;;8.83;6.63;;;;;;;14.13;nan;97556.81;4975281;28;20701;-76
2023/10/19 07:02:04;;;;;;;9.43;7.57;;;;;;;14.19;nan;97555.31;4971487;28;20199;-76
2023/10/19 07:04:29;;;;;;;17.40;10.10;;;;;;;14.25;nan;97559.91;4971316;28;20196;-76
2023/10/19 07:06:56;;;;;;;16.83;13.03;;;;;;;14.31;nan;97564.53;4973759;28;20198;-76
2023/10/19 07:09:22;;;;;;;18.90;14.40;;;;;;;14.37;nan;97569.13;4971208;28;20204;-76
2023/10/19 07:11:48;;;;;;;15.45;11.45;;;;;;;14.42;nan;97565.13;4972851;28;20227;-76
2023/10/19 07:14:13;;;;;;;14.30;12.80;;;;;;;14.48;nan;97565.28;4970156;28;20493;-76
2023/10/19 07:16:40;;;;;;;18.60;11.00;;;;;;;14.55;nan;97563.59;4971751;28;20486;-76
2023/10/19 07:19:06;;;;;;;19.30;14.60;;;;;;;14.59;nan;97556.97;4971443;28;20215;-76
2023/10/19 07:21:35;;;;;;;14.80;11.73;;;;;;;14.63;nan;97557.44;4971832;28;20200;-76
2023/10/19 07:24:05;;;;;;;15.20;11.02;;;;;;;14.70;nan;97560.25;4969614;28;20342;-77
2023/10/19 07:26:33;;;;;;;13.73;10.80;;;;;;;14.75;nan;97556.06;4973356;28;20204;-77
2023/10/19 07:28:59;;;;;;;13.88;8.02;;;;;;;14.83;nan;97566.59;4973524;28;20208;-77
2023/10/19 07:31:27;;;;;;;9.88;8.57;;;;;;;14.92;nan;97562.06;4968979;28;20192;-76
2023/10/19 07:33:55;;;;;;;12.93;10.23;;;;;;;15.00;nan;97559.38;4971456;28;20250;-76
2023/10/19 07:36:21;;;;;;;11.68;9.35;;;;;;;15.09;nan;97557.50;4969943;28;20299;-77
2023/10/19 07:38:47;;;;;;;11.50;9.27;;;;;;;15.20;nan;97558.91;4969686;28;20192;-76
2023/10/19 07:41:13;;;;;;;14.95;9.50;;;;;;;15.28;nan;97561.47;4970401;28;20235;-77
2023/10/19 07:43:39;;;;;;;11.53;8.60;;;;;;;15.36;nan;97555.31;4968891;28;20283;-77
2023/10/19 07:46:04;;;;;;;13.47;8.90;;;;;;;15.44;nan;97555.22;4970174;28;20508;-77
2023/10/19 07:48:30;;;;;;;11.00;8.60;;;;;;;15.53;nan;97566.56;4970429;28;20851;-76
2023/10/19 07:50:55;;;;;;;10.27;8.20;;;;;;;15.62;nan;97565.50;4969700;28;20699;-77
2023/10/19 07:53:21;;;;;;;11.43;8.70;;;;;;;15.67;nan;97563.97;4968667;28;20566;-77
2023/10/19 07:55:47;;;;;;;12.43;11.20;;;;;;;15.70;nan;97560.97;4968350;28;20797;-77
2023/10/19 07:58:12;;;;;;;12.47;8.90;;;;;;;15.73;nan;97558.97;4967284;28;20199;-77
2023/10/19 08:00:38;;;;;;;12.13;9.00;;;;;;;15.77;nan;97565.53;4970347;28;20231;-77
2023/10/19 08:03:05;;;;;;;11.27;8.50;;;;;;;15.79;nan;97563.53;4970055;28;20200;-77
2023/10/19 08:05:31;;;;;;;10.05;7.97;;;;;;;15.79;nan;97563.53;4953097;28;20934;-77
2023/10/19 08:08:00;;;;;;;12.93;8.48;;;;;;;15.76;nan;97559.44;4968458;28;20230;-77
2023/10/19 08:10:26;;;;;;;14.73;9.43;;;;;;;15.75;nan;97556.97;4967587;28;20237;-77
2023/10/19 08:12:52;;;;;;;16.75;9.30;;;;;;;15.71;nan;97559.16;4968629;28;20686;-77
2023/10/19 08:15:20;;;;;;;15.45;9.05;;;;;;;15.67;nan;97558.66;4980011;23;20212;-75
2023/10/19 08:17:48;;;;;;;15.38;9.00;;;;;;;15.64;nan;97566.16;4913191;29;20881;-75
2023/10/19 08:20:24;;;;;;;11.10;7.90;;;;;;;15.60;nan;97562.19;4919352;28;20678;-75
2023/10/19 08:22:53;;;;;;;15.77;8.88;;;;;;;15.55;nan;97561.91;4929869;28;20210;-75
2023/10/19 08:25:20;;;;;;;14.38;9.73;;;;;;;15.51;nan;97560.66;4931975;28;20573;-75
2023/10/19 08:27:49;;;;;;;9.27;7.22;;;;;;;15.48;nan;97552.06;4947203;28;20685;-75
2023/10/19 08:30:20;;;;;;;9.23;7.30;;;;;;;15.45;nan;97556.91;4949665;28;20462;-75
2023/10/19 08:32:48;;;;;;;10.18;8.75;;;;;;;15.40;nan;97554.78;4948861;28;20686;-76
2023/10/19 08:35:15;;;;;;;12.27;9.68;;;;;;;15.38;nan;97553.31;4949128;28;20698;-76
2023/10/19 08:37:42;;;;;;;11.73;10.50;;;;;;;15.36;nan;97550.81;4948809;28;20216;-76
2023/10/19 08:40:14;;;;;;;17.02;8.20;;;;;;;15.33;nan;97547.72;4949845;28;20239;-76
2023/10/19 08:45:21;;;;;;;15.15;9.80;;;;;;;15.23;nan;97558.56;5216498;23;20256;-76
2023/10/19 08:47:59;;;;;;;13.80;9.30;;;;;;;15.22;nan;97556.91;4952523;28;20324;-76
2023/10/19 08:50:29;;;;;;;9.75;8.75;;;;;;;15.20;nan;97570.31;4951972;28;20244;-76
2023/10/19 08:52:57;;;;;;;13.63;10.15;;;;;;;15.21;nan;97571.97;4953130;28;20216;-76
2023/10/19 08:55:23;;;;;;;17.33;11.60;;;;;;;15.22;nan;97570.94;4951482;28;20220;-75
2023/10/19 08:57:49;;;;;;;18.02;12.10;;;;;;;15.24;nan;97576.06;4952395;28;20303;-75
2023/10/19 09:00:19;;;;;;;13.00;10.75;;;;;;;15.27;nan;97568.59;4931350;28;20702;-75
2023/10/19 09:02:45;;;;;;;15.10;10.68;;;;;;;15.30;nan;97558.66;4953039;28;20292;-76
2023/10/19 09:05:19;;;;;;;17.90;12.07;;;;;;;15.32;nan;97562.78;4952235;28;20378;-76
2023/10/19 09:07:54;;;;;;;12.65;10.73;;;;;;;15.34;nan;97546.72;4953162;28;20466;-78
2023/10/19 09:10:25;;;;;;;13.48;10.40;;;;;;;15.32;nan;97536.31;4951210;28;20207;-77
2023/10/19 09:13:02;;;;;;;13.55;9.77;;;;;;;15.36;nan;97542.06;4952313;28;20196;-76
2023/10/19 09:15:30;;;;;;;11.85;9.85;;;;;;;15.35;nan;97548.38;4952056;28;20239;-77
2023/10/19 09:17:56;;;;;;;13.10;9.48;;;;;;;15.36;nan;97556.13;4949068;28;20699;-77
2023/10/19 09:20:27;;;;;;;9.63;7.77;;;;;;;15.37;nan;97549.03;4949532;28;20292;-77
2023/10/19 09:22:57;;;;;;;17.88;9.95;;;;;;;15.34;nan;97529.03;4950155;28;20224;-77
2023/10/19 09:25:23;;;;;;;13.20;9.75;;;;;;;15.27;nan;97533.41;4947858;28;20251;-77
2023/10/19 09:27:49;;;;;;;11.50;7.77;;;;;;;15.32;nan;97538.16;4948686;28;20675;-77
2023/10/19 09:30:21;;;;;;;10.83;8.30;;;;;;;15.31;nan;97540.00;4949406;28;20223;-77
2023/10/19 09:32:47;;;;;;;13.55;9.98;;;;;;;15.34;nan;97536.13;4950301;28;20228;-77
2023/10/19 09:35:19;;;;;;;10.38;9.20;;;;;;;15.34;nan;97531.69;4949247;28;20220;-76
2023/10/19 09:37:44;;;;;;;16.15;12.27;;;;;;;15.40;nan;97525.69;4947343;28;20743;-76
2023/10/19 09:40:13;;;;;;;17.07;11.07;;;;;;;15.40;nan;97520.38;4950034;28;20667;-77
2023/10/19 09:42:46;;;;;;;18.98;12.00;;;;;;;15.37;nan;97517.28;4947689;28;20211;-77
2023/10/19 09:45:12;;;;;;;12.50;11.20;;;;;;;15.32;nan;97493.19;4948705;28;20582;-77
2023/10/19 09:47:45;;;;;;;17.27;13.48;;;;;;;15.25;nan;97474.56;4951802;28;20206;-75
2023/10/19 09:50:11;;;;;;;18.00;12.05;;;;;;;15.15;nan;97453.66;4948545;28;20208;-76
2023/10/19 09:52:39;;;;;;;20.50;10.83;;;;;;;15.17;nan;97451.66;4948600;28;20701;-76
2023/10/19 09:55:10;;;;;;;11.52;8.77;;;;;;;15.29;nan;97464.47;4948578;28;20489;-77
2023/10/19 09:57:51;;;;;;;12.25;9.73;;;;;;;15.39;nan;97452.63;4946610;28;20201;-76
2023/10/19 10:00:23;;;;;;;11.40;8.70;;;;;;;15.45;nan;97457.19;4948961;28;20205;-77
2023/10/19 10:02:49;;;;;;;10.43;7.07;;;;;;;15.58;nan;97453.91;4951583;28;20333;-77
2023/10/19 10:05:42;;;;;;;12.57;7.70;;;;;;;15.69;nan;97458.78;4949036;28;20420;-76
2023/10/19 10:08:16;;;;;;;11.57;7.72;;;;;;;15.81;nan;97453.00;4948130;28;20209;-77
2023/10/19 10:10:43;;;;;;;9.30;7.70;;;;;;;15.91;nan;97458.84;4952389;28;20204;-77
2023/10/19 10:13:32;;;;;;;10.43;7.43;;;;;;;16.05;nan;97442.13;4954069;28;20205;-76
2023/10/19 10:15:58;;;;;;;7.75;6.90;;;;;;;16.13;nan;97438.53;4950782;28;20702;-76
2023/10/19 10:18:24;;;;;;;8.95;6.15;;;;;;;16.20;nan;97443.91;4951589;28;20205;-76
2023/10/19 10:21:12;;;;;;;10.93;6.90;;;;;;;16.27;nan;97453.56;4951738;28;20207;-77
2023/10/19 10:23:48;;;;;;;7.32;6.13;;;;;;;16.35;nan;97442.88;4953281;28;20217;-77
2023/10/19 10:26:14;;;;;;;8.23;6.55;;;;;;;16.43;nan;97433.97;4951707;28;20614;-77
2023/10/19 10:28:41;;;;;;;10.32;7.35;;;;;;;16.51;nan;97433.88;4952190;28;20214;-77
2023/10/19 10:31:08;;;;;;;8.40;6.10;;;;;;;16.62;nan;97440.50;4953503;28;20217;-77
2023/10/19 10:33:51;;;;;;;7.65;6.18;;;;;;;16.74;nan;97439.00;4953378;28;20794;-77
2023/10/19 10:36:18;;;;;;;8.60;6.72;;;;;;;16.81;nan;97436.41;4953361;28;20285;-77
2023/10/19 10:38:45;;;;;;;7.50;6.72;;;;;;;16.91;nan;97420.19;4952754;28;20863;-77
2023/10/19 10:41:11;;;;;;;6.75;5.57;;;;;;;17.01;nan;97426.81;4951518;28;20216;-77
2023/10/19 10:43:54;;;;;;;7.27;4.70;;;;;;;17.14;nan;97419.94;4951741;28;20196;-78
2023/10/19 10:46:21;;;;;;;6.05;4.95;;;;;;;17.24;nan;97415.13;4953577;28;20710;-77
2023/10/19 10:48:48;;;;;;;9.50;5.18;;;;;;;17.35;nan;97409.28;4953185;28;20839;-77
2023/10/19 10:51:28;;;;;;;6.50;5.10;;;;;;;17.45;nan;97399.16;4951742;28;20217;-77
2023/10/19 10:53:54;;;;;;;7.50;4.97;;;;;;;17.55;nan;97401.47;4954088;28;20271;-77
2023/10/19 10:56:22;;;;;;;6.80;5.88;;;;;;;17.62;nan;97396.16;4952703;28;20214;-77
2023/10/19 10:58:48;;;;;;;5.93;4.82;;;;;;;17.66;nan;97403.56;4951880;28;20815;-77
2023/10/19 11:01:14;;;;;;;5.40;4.50;;;;;;;17.67;nan;97397.22;4951536;28;20234;-77
2023/10/19 11:03:41;;;;;;;6.35;5.75;;;;;;;17.69;nan;97397.84;4950641;28;20203;-77
2023/10/19 11:06:09;;;;;;;5.88;4.70;;;;;;;17.72;nan;97391.31;4951854;28;20351;-76
2023/10/19 11:08:36;;;;;;;5.10;4.60;;;;;;;17.73;nan;97382.31;4950445;28;20244;-77
2023/10/19 11:11:04;;;;;;;7.33;5.30;;;;;;;17.75;nan;97374.19;4932528;28;20462;-77
2023/10/19 11:13:32;;;;;;;5.28;3.95;;;;;;;17.75;nan;97382.97;4951177;28;20468;-77
2023/10/19 11:15:58;;;;;;;6.07;4.43;;;;;;;17.76;nan;97383.78;4952662;28;20294;-77
2023/10/19 11:18:37;;;;;;;6.40;4.83;;;;;;;17.78;nan;97379.91;4950835;28;20495;-78
2023/10/19 11:21:09;;;;;;;5.30;4.80;;;;;;;17.79;nan;97380.75;4952935;28;20697;-77
2023/10/19 11:23:42;;;;;;;6.07;5.47;;;;;;;17.78;nan;97385.22;4949357;28;20494;-77
2023/10/19 11:26:10;;;;;;;10.20;5.17;;;;;;;17.86;nan;97393.03;4952215;28;20508;-77
2023/10/19 11:28:42;;;;;;;8.17;7.07;;;;;;;17.91;nan;97400.41;4952402;28;20471;-77
2023/10/19 11:31:13;;;;;;;8.53;7.40;;;;;;;17.94;nan;97404.53;4952422;28;20534;-77
2023/10/19 11:33:38;;;;;;;8.63;7.70;;;;;;;17.95;nan;97400.84;4951557;28;20582;-79
2023/10/19 11:36:04;;;;;;;10.87;8.13;;;;;;;17.96;nan;97402.47;4953605;28;20473;-78
2023/10/19 11:38:30;;;;;;;13.70;9.00;;;;;;;17.95;nan;97406.16;4957155;28;20279;-78
2023/10/19 11:40:56;;;;;;;9.13;8.23;;;;;;;17.90;nan;97414.69;4954117;28;20543;-77
2023/10/19 11:43:21;;;;;;;8.83;7.97;;;;;;;17.84;nan;97408.34;4956992;28;20285;-82
2023/10/19 11:45:46;;;;;;;11.63;8.10;;;;;;;17.81;nan;97415.91;4959464;28;20500;-83
2023/10/19 11:50:54;;;;;;;10.40;8.80;;;;;;;17.78;nan;97448.94;5586847;23;20241;-76
2023/10/19 11:53:19;;;;;;;12.80;10.57;;;;;;;17.76;nan;97453.63;4957834;28;20470;-74
2023/10/19 11:55:48;;;;;;;18.67;14.60;;;;;;;17.76;nan;97434.22;4966842;28;20218;-81
2023/10/19 11:58:14;;;;;;;13.43;11.80;;;;;;;17.74;nan;97447.72;4980468;28;20207;-80
2023/10/19 12:00:41;;;;;;;13.87;10.63;;;;;;;17.77;nan;97435.84;4983804;28;20454;-80
2023/10/19 12:03:06;;;;;;;14.93;8.93;;;;;;;17.81;nan;97437.94;4986529;28;20500;-81
2023/10/19 12:05:36;;;;;;;12.87;10.00;;;;;;;17.84;nan;97434.91;4986371;28;20461;-80
2023/10/19 12:08:02;;;;;;;9.40;7.97;;;;;;;17.88;nan;97428.19;4984044;28;20586;-80
2023/10/19 12:10:36;;;;;;;9.50;7.77;;;;;;;17.92;nan;97420.63;4984070;28;20515;-80
2023/10/19 12:13:05;;;;;;;7.47;6.77;;;;;;;17.98;nan;97411.06;4984896;28;20501;-80
2023/10/19 12:15:32;;;;;;;9.27;7.20;;;;;;;18.02;nan;97418.44;4986081;28;20488;-80